sensor_id;sensor_type;location;lat;lon;timestamp;temperature;humidity
40630;DHT22;26329;40.388;-3.710;2023-06-14T00:07:41;20.90;57.00
40630;DHT22;26329;40.388;-3.710;2023-06-14T00:17:45;20.80;57.20
40630;DHT22;26329;40.388;-3.710;2023-06-14T00:27:48;20.80;57.20
40630;DHT22;26329;40.388;-3.710;2023-06-14T00:37:48;20.80;56.60
40630;DHT22;26329;40.388;-3.710;2023-06-14T00:47:50;20.90;55.80
40630;DHT22;26329;40.388;-3.710;2023-06-14T00:57:55;20.80;55.80
40630;DHT22;26329;40.388;-3.710;2023-06-14T01:18:15;20.90;54.80
40630;DHT22;26329;40.388;-3.710;2023-06-14T01:28:20;20.80;54.00
40630;DHT22;26329;40.388;-3.710;2023-06-14T01:38:26;20.70;54.60
40630;DHT22;26329;40.388;-3.710;2023-06-14T01:48:27;20.60;54.80
40630;DHT22;26329;40.388;-3.710;2023-06-14T01:58:28;20.60;55.70
40630;DHT22;26329;40.388;-3.710;2023-06-14T02:08:29;20.30;57.20
40630;DHT22;26329;40.388;-3.710;2023-06-14T02:18:29;20.20;57.80
40630;DHT22;26329;40.388;-3.710;2023-06-14T02:28:30;20.10;58.20
40630;DHT22;26329;40.388;-3.710;2023-06-14T02:38:31;19.90;58.80
40630;DHT22;26329;40.388;-3.710;2023-06-14T02:48:32;19.80;59.00
40630;DHT22;26329;40.388;-3.710;2023-06-14T02:58:33;19.80;58.30
40630;DHT22;26329;40.388;-3.710;2023-06-14T03:08:34;19.70;58.80
40630;DHT22;26329;40.388;-3.710;2023-06-14T03:18:39;19.70;59.00
40630;DHT22;26329;40.388;-3.710;2023-06-14T03:28:40;19.70;59.00
40630;DHT22;26329;40.388;-3.710;2023-06-14T03:38:41;19.60;57.50
40630;DHT22;26329;40.388;-3.710;2023-06-14T03:48:42;19.30;58.00
40630;DHT22;26329;40.388;-3.710;2023-06-14T03:58:43;19.20;57.90
40630;DHT22;26329;40.388;-3.710;2023-06-14T04:08:43;19.30;58.60
40630;DHT22;26329;40.388;-3.710;2023-06-14T04:18:46;19.10;59.10
40630;DHT22;26329;40.388;-3.710;2023-06-14T04:28:49;19.10;59.60
40630;DHT22;26329;40.388;-3.710;2023-06-14T04:38:50;19.00;59.90
40630;DHT22;26329;40.388;-3.710;2023-06-14T04:48:54;18.90;59.80
40630;DHT22;26329;40.388;-3.710;2023-06-14T04:58:55;18.90;60.00
40630;DHT22;26329;40.388;-3.710;2023-06-14T05:08:57;18.80;60.40
40630;DHT22;26329;40.388;-3.710;2023-06-14T05:18:58;18.80;60.70
40630;DHT22;26329;40.388;-3.710;2023-06-14T05:28:59;18.80;61.10
40630;DHT22;26329;40.388;-3.710;2023-06-14T05:39:01;18.80;61.30
40630;DHT22;26329;40.388;-3.710;2023-06-14T05:49:03;18.80;61.50
40630;DHT22;26329;40.388;-3.710;2023-06-14T05:59:04;18.80;62.30
40630;DHT22;26329;40.388;-3.710;2023-06-14T06:09:05;18.80;62.90
40630;DHT22;26329;40.388;-3.710;2023-06-14T06:19:05;18.80;62.80
40630;DHT22;26329;40.388;-3.710;2023-06-14T06:29:06;18.90;62.20
40630;DHT22;26329;40.388;-3.710;2023-06-14T06:39:07;19.10;61.60
40630;DHT22;26329;40.388;-3.710;2023-06-14T06:49:10;19.40;60.00
40630;DHT22;26329;40.388;-3.710;2023-06-14T06:59:12;19.80;59.00
40630;DHT22;26329;40.388;-3.710;2023-06-14T07:09:14;20.80;57.00
40630;DHT22;26329;40.388;-3.710;2023-06-14T07:19:16;21.80;53.20
40630;DHT22;26329;40.388;-3.710;2023-06-14T07:29:17;22.80;50.40
40630;DHT22;26329;40.388;-3.710;2023-06-14T07:39:18;23.30;48.10
40630;DHT22;26329;40.388;-3.710;2023-06-14T07:49:19;23.70;46.90
40630;DHT22;26329;40.388;-3.710;2023-06-14T07:59:20;24.00;46.10
40630;DHT22;26329;40.388;-3.710;2023-06-14T08:09:22;24.50;45.10
40630;DHT22;26329;40.388;-3.710;2023-06-14T08:19:23;24.50;43.60
40630;DHT22;26329;40.388;-3.710;2023-06-14T08:29:24;24.60;43.90
40630;DHT22;26329;40.388;-3.710;2023-06-14T08:39:24;24.70;43.40
40630;DHT22;26329;40.388;-3.710;2023-06-14T08:49:26;25.20;43.20
40630;DHT22;26329;40.388;-3.710;2023-06-14T08:59:26;25.60;42.70
40630;DHT22;26329;40.388;-3.710;2023-06-14T09:09:27;25.70;42.20
40630;DHT22;26329;40.388;-3.710;2023-06-14T09:19:28;25.80;42.30
40630;DHT22;26329;40.388;-3.710;2023-06-14T09:29:29;25.80;42.20
40630;DHT22;26329;40.388;-3.710;2023-06-14T09:39:31;26.30;41.00
40630;DHT22;26329;40.388;-3.710;2023-06-14T09:49:33;26.10;42.00
40630;DHT22;26329;40.388;-3.710;2023-06-14T09:59:34;25.80;42.70
40630;DHT22;26329;40.388;-3.710;2023-06-14T10:09:36;25.70;43.30
40630;DHT22;26329;40.388;-3.710;2023-06-14T10:19:48;25.80;42.50
40630;DHT22;26329;40.388;-3.710;2023-06-14T10:39:53;26.00;42.50
40630;DHT22;26329;40.388;-3.710;2023-06-14T10:49:56;25.80;42.80
40630;DHT22;26329;40.388;-3.710;2023-06-14T11:00:02;26.00;41.80
40630;DHT22;26329;40.388;-3.710;2023-06-14T11:10:37;26.20;41.40
40630;DHT22;26329;40.388;-3.710;2023-06-14T11:20:40;26.00;41.60
40630;DHT22;26329;40.388;-3.710;2023-06-14T11:30:40;26.30;40.30
40630;DHT22;26329;40.388;-3.710;2023-06-14T11:40:41;26.40;40.30
40630;DHT22;26329;40.388;-3.710;2023-06-14T11:50:42;26.80;40.00
40630;DHT22;26329;40.388;-3.710;2023-06-14T12:00:42;26.60;40.20
40630;DHT22;26329;40.388;-3.710;2023-06-14T12:10:44;26.70;39.80
40630;DHT22;26329;40.388;-3.710;2023-06-14T12:20:47;27.10;38.80
40630;DHT22;26329;40.388;-3.710;2023-06-14T12:30:50;27.00;38.50
40630;DHT22;26329;40.388;-3.710;2023-06-14T12:40:53;27.20;38.10
40630;DHT22;26329;40.388;-3.710;2023-06-14T12:50:53;27.30;38.60
40630;DHT22;26329;40.388;-3.710;2023-06-14T13:00:54;27.50;38.00
40630;DHT22;26329;40.388;-3.710;2023-06-14T13:10:55;27.40;37.50
40630;DHT22;26329;40.388;-3.710;2023-06-14T13:20:56;27.20;38.40
40630;DHT22;26329;40.388;-3.710;2023-06-14T13:30:56;27.40;38.20
40630;DHT22;26329;40.388;-3.710;2023-06-14T13:40:57;27.70;37.50
40630;DHT22;26329;40.388;-3.710;2023-06-14T13:51:00;27.90;36.80
40630;DHT22;26329;40.388;-3.710;2023-06-14T14:01:01;28.20;37.00
40630;DHT22;26329;40.388;-3.710;2023-06-14T14:11:02;27.90;36.90
40630;DHT22;26329;40.388;-3.710;2023-06-14T14:21:03;27.70;37.70
40630;DHT22;26329;40.388;-3.710;2023-06-14T14:31:04;27.80;37.20
40630;DHT22;26329;40.388;-3.710;2023-06-14T14:41:05;27.80;37.30
40630;DHT22;26329;40.388;-3.710;2023-06-14T14:51:05;28.00;36.80
40630;DHT22;26329;40.388;-3.710;2023-06-14T15:01:06;28.20;36.80
40630;DHT22;26329;40.388;-3.710;2023-06-14T15:11:07;28.50;36.60
40630;DHT22;26329;40.388;-3.710;2023-06-14T15:21:08;28.60;36.40
40630;DHT22;26329;40.388;-3.710;2023-06-14T15:31:08;28.30;36.80
40630;DHT22;26329;40.388;-3.710;2023-06-14T15:41:09;28.10;36.60
40630;DHT22;26329;40.388;-3.710;2023-06-14T15:51:10;28.00;37.10
40630;DHT22;26329;40.388;-3.710;2023-06-14T16:01:11;27.80;37.20
40630;DHT22;26329;40.388;-3.710;2023-06-14T16:11:12;27.70;39.00
40630;DHT22;26329;40.388;-3.710;2023-06-14T16:21:12;27.50;38.40
40630;DHT22;26329;40.388;-3.710;2023-06-14T16:31:13;27.60;38.60
40630;DHT22;26329;40.388;-3.710;2023-06-14T16:41:16;27.40;38.50
40630;DHT22;26329;40.388;-3.710;2023-06-14T16:51:17;27.30;38.60
40630;DHT22;26329;40.388;-3.710;2023-06-14T17:01:17;27.20;38.40
40630;DHT22;26329;40.388;-3.710;2023-06-14T17:11:18;27.20;38.50
40630;DHT22;26329;40.388;-3.710;2023-06-14T17:21:22;27.20;39.10
40630;DHT22;26329;40.388;-3.710;2023-06-14T17:31:23;27.20;38.70
40630;DHT22;26329;40.388;-3.710;2023-06-14T17:41:24;27.20;38.90
40630;DHT22;26329;40.388;-3.710;2023-06-14T17:51:24;27.30;38.60
40630;DHT22;26329;40.388;-3.710;2023-06-14T18:01:25;27.20;38.90
40630;DHT22;26329;40.388;-3.710;2023-06-14T18:11:26;27.10;39.10
40630;DHT22;26329;40.388;-3.710;2023-06-14T18:21:28;27.20;39.20
40630;DHT22;26329;40.388;-3.710;2023-06-14T18:31:28;27.20;39.30
40630;DHT22;26329;40.388;-3.710;2023-06-14T18:41:29;27.20;39.30
40630;DHT22;26329;40.388;-3.710;2023-06-14T18:51:30;27.10;39.50
40630;DHT22;26329;40.388;-3.710;2023-06-14T19:01:31;26.90;39.60
40630;DHT22;26329;40.388;-3.710;2023-06-14T19:11:32;26.80;39.50
40630;DHT22;26329;40.388;-3.710;2023-06-14T19:21:34;26.70;40.40
40630;DHT22;26329;40.388;-3.710;2023-06-14T19:31:35;26.70;40.60
40630;DHT22;26329;40.388;-3.710;2023-06-14T19:41:36;26.50;40.70
40630;DHT22;26329;40.388;-3.710;2023-06-14T19:51:36;26.40;41.30
40630;DHT22;26329;40.388;-3.710;2023-06-14T20:01:37;26.20;41.90
40630;DHT22;26329;40.388;-3.710;2023-06-14T20:11:38;26.10;42.70
40630;DHT22;26329;40.388;-3.710;2023-06-14T20:21:39;26.10;39.00
40630;DHT22;26329;40.388;-3.710;2023-06-14T20:31:40;26.00;39.20
40630;DHT22;26329;40.388;-3.710;2023-06-14T20:41:41;25.90;39.40
40630;DHT22;26329;40.388;-3.710;2023-06-14T20:51:41;25.80;38.50
40630;DHT22;26329;40.388;-3.710;2023-06-14T21:01:42;25.70;38.70
40630;DHT22;26329;40.388;-3.710;2023-06-14T21:11:43;25.60;38.60
40630;DHT22;26329;40.388;-3.710;2023-06-14T21:21:44;25.30;39.30
40630;DHT22;26329;40.388;-3.710;2023-06-14T21:31:44;25.20;39.70
40630;DHT22;26329;40.388;-3.710;2023-06-14T21:41:45;25.20;39.90
40630;DHT22;26329;40.388;-3.710;2023-06-14T21:51:46;25.00;40.00
40630;DHT22;26329;40.388;-3.710;2023-06-14T22:01:47;24.90;40.30
40630;DHT22;26329;40.388;-3.710;2023-06-14T22:11:47;24.60;41.60
40630;DHT22;26329;40.388;-3.710;2023-06-14T22:21:49;24.30;42.80
40630;DHT22;26329;40.388;-3.710;2023-06-14T22:31:51;24.00;43.90
40630;DHT22;26329;40.388;-3.710;2023-06-14T22:41:52;23.80;44.50
40630;DHT22;26329;40.388;-3.710;2023-06-14T22:51:53;23.60;45.30
40630;DHT22;26329;40.388;-3.710;2023-06-14T23:01:56;23.30;46.10
40630;DHT22;26329;40.388;-3.710;2023-06-14T23:11:58;23.20;47.10
40630;DHT22;26329;40.388;-3.710;2023-06-14T23:22:01;23.10;48.60
40630;DHT22;26329;40.388;-3.710;2023-06-14T23:32:03;22.80;50.30
40630;DHT22;26329;40.388;-3.710;2023-06-14T23:42:05;22.60;51.50
40630;DHT22;26329;40.388;-3.710;2023-06-14T23:52:07;22.50;52.40
